createdAt,value
2019-05-20T00:02:29.325Z,15.20
2019-05-20T00:07:32.330Z,15.20
2019-05-20T00:12:35.062Z,15.20
2019-05-20T00:17:37.775Z,15.30
2019-05-20T00:22:40.809Z,15.30
2019-05-20T00:27:43.674Z,15.30
2019-05-20T00:32:46.365Z,15.40
2019-05-20T00:37:49.559Z,15.30
2019-05-20T00:42:52.482Z,15.10
2019-05-20T00:47:56.462Z,15.10
2019-05-20T00:52:59.197Z,15.00
2019-05-20T00:58:03.925Z,14.90
2019-05-20T01:03:06.600Z,14.70
2019-05-20T01:08:09.472Z,14.60
2019-05-20T01:13:12.713Z,14.60
2019-05-20T01:18:15.526Z,14.50
2019-05-20T01:23:18.221Z,14.50
2019-05-20T01:28:21.010Z,14.50
2019-05-20T01:33:23.896Z,14.50
2019-05-20T01:38:27.588Z,14.40
2019-05-20T01:43:30.286Z,14.30
2019-05-20T01:48:33.022Z,14.20
2019-05-20T01:53:35.744Z,14.10
2019-05-20T01:58:39.657Z,14.00
2019-05-20T02:03:42.744Z,14.00
2019-05-20T02:08:45.479Z,13.90
2019-05-20T02:13:57.748Z,13.90
2019-05-20T02:19:00.483Z,14.00
2019-05-20T02:24:03.227Z,14.00
2019-05-20T02:29:06.262Z,13.90
2019-05-20T02:34:08.984Z,14.00
2019-05-20T02:39:11.787Z,14.00
2019-05-20T02:44:14.573Z,14.10
2019-05-20T02:49:17.478Z,14.10
2019-05-20T02:54:21.329Z,14.20
2019-05-20T02:59:24.034Z,14.20
2019-05-20T03:04:27.011Z,14.20
2019-05-20T03:09:29.670Z,14.20
2019-05-20T03:14:32.385Z,14.10
2019-05-20T03:19:43.247Z,14.10
2019-05-20T03:24:46.028Z,14.10
2019-05-20T03:29:49.191Z,14.10
2019-05-20T03:34:59.259Z,14.00
2019-05-20T03:39:56.603Z,14.10
2019-05-20T03:44:59.381Z,14.10
2019-05-20T03:50:02.296Z,14.20
2019-05-20T03:55:07.148Z,14.20
2019-05-20T04:00:11.020Z,14.20
2019-05-20T04:05:13.781Z,14.20
2019-05-20T04:10:16.543Z,14.20
2019-05-20T04:15:19.340Z,14.30
2019-05-20T04:26:15.396Z,14.40
2019-05-20T04:31:40.320Z,14.50
2019-05-20T04:36:48.128Z,14.50
2019-05-20T04:41:55.960Z,14.50
2019-05-20T04:46:58.789Z,14.60
2019-05-20T04:52:02.993Z,14.70
2019-05-20T04:57:08.974Z,14.80
2019-05-20T05:02:12.586Z,14.90
2019-05-20T05:07:15.777Z,14.90
2019-05-20T05:12:18.933Z,15.00
2019-05-20T05:17:23.365Z,15.00
2019-05-20T05:22:32.675Z,15.10
2019-05-20T05:27:35.487Z,15.20
2019-05-20T05:32:41.369Z,15.20
2019-05-20T05:37:45.377Z,15.30
2019-05-20T05:42:48.217Z,15.40
2019-05-20T05:47:51.545Z,15.50
2019-05-20T05:52:54.346Z,15.60
2019-05-20T05:57:57.082Z,15.60
2019-05-20T06:03:00.186Z,15.70
2019-05-20T06:08:03.509Z,15.80
2019-05-20T06:13:06.180Z,15.80
2019-05-20T06:18:08.939Z,15.90
2019-05-20T06:23:11.693Z,16.00
2019-05-20T06:28:14.332Z,16.00
2019-05-20T06:33:17.147Z,16.00
2019-05-20T06:38:37.899Z,15.90
2019-05-20T06:43:41.920Z,16.00
2019-05-20T06:48:44.557Z,16.10
2019-05-20T06:53:47.385Z,16.20
2019-05-20T06:58:50.461Z,16.30
2019-05-20T07:03:53.203Z,16.40
2019-05-20T07:08:56.043Z,16.50
2019-05-20T07:13:58.789Z,16.70
2019-05-20T07:19:01.856Z,16.70
2019-05-20T07:24:04.906Z,16.80
2019-05-20T07:29:07.701Z,16.70
2019-05-20T07:34:10.479Z,16.80
2019-05-20T07:39:14.397Z,16.80
2019-05-20T07:44:17.180Z,16.80
2019-05-20T07:49:20.180Z,16.80
2019-05-20T07:54:23.694Z,16.90
2019-05-20T07:59:29.713Z,16.90
2019-05-20T08:04:32.571Z,16.80
2019-05-20T08:09:42.542Z,16.90
2019-05-20T08:14:40.021Z,16.90
2019-05-20T08:19:42.734Z,17.00
2019-05-20T08:24:45.470Z,17.10
2019-05-20T08:29:48.197Z,17.30
2019-05-20T08:34:50.933Z,17.50
2019-05-20T08:39:54.730Z,17.70
2019-05-20T08:44:57.551Z,17.70
2019-05-20T08:50:00.262Z,17.60
2019-05-20T08:55:03.232Z,17.70
2019-05-20T09:00:06.584Z,17.80
2019-05-20T09:05:09.987Z,18.20
2019-05-20T09:10:12.922Z,18.70
2019-05-20T09:15:16.725Z,18.90
2019-05-20T09:20:19.792Z,18.90
2019-05-20T09:25:29.789Z,19.00
2019-05-20T09:30:32.491Z,19.20
2019-05-20T09:35:35.383Z,19.30
2019-05-20T09:40:40.297Z,19.50
2019-05-20T09:45:43.001Z,19.50
2019-05-20T09:50:45.781Z,19.40
2019-05-20T09:55:48.601Z,19.40
2019-05-20T10:00:51.859Z,19.50
2019-05-20T10:05:54.679Z,19.80
2019-05-20T10:10:59.869Z,20.00
2019-05-20T10:16:02.670Z,20.00
2019-05-20T10:21:06.811Z,20.60
2019-05-20T10:26:09.548Z,20.60
2019-05-20T10:31:21.751Z,20.80
2019-05-20T10:36:24.614Z,20.80
2019-05-20T10:41:29.524Z,21.10
2019-05-20T10:46:35.705Z,21.30
2019-05-20T10:51:38.413Z,21.80
2019-05-20T10:56:41.303Z,22.50
2019-05-20T11:01:44.329Z,22.90
2019-05-20T11:06:47.558Z,23.30
2019-05-20T11:11:50.328Z,23.10
2019-05-20T11:16:53.066Z,23.00
2019-05-20T11:21:55.857Z,23.60
2019-05-20T11:26:59.738Z,24.10
2019-05-20T11:32:03.936Z,23.50
2019-05-20T11:37:07.828Z,23.20
2019-05-20T11:42:10.615Z,23.20
2019-05-20T11:47:13.385Z,23.10
2019-05-20T11:52:16.123Z,23.10
2019-05-20T11:57:19.328Z,23.30
2019-05-20T12:02:25.952Z,23.30
2019-05-20T12:07:28.807Z,22.80
2019-05-20T12:12:31.647Z,22.20
2019-05-20T12:17:34.438Z,22.00
2019-05-20T12:22:37.320Z,21.90
2019-05-20T12:27:40.237Z,22.10
2019-05-20T12:32:43.218Z,22.20
2019-05-20T12:37:45.996Z,22.10
2019-05-20T12:42:48.707Z,21.90
2019-05-20T12:47:51.411Z,21.60
2019-05-20T12:52:54.131Z,21.50
2019-05-20T12:57:56.799Z,21.70
2019-05-20T13:02:59.632Z,21.90
2019-05-20T13:08:03.022Z,21.70
2019-05-20T13:13:05.775Z,21.40
2019-05-20T13:18:08.585Z,20.90
2019-05-20T13:23:13.336Z,20.00
2019-05-20T13:28:15.924Z,19.40
2019-05-20T13:33:18.528Z,19.10
2019-05-20T13:38:21.301Z,19.20
2019-05-20T13:43:24.123Z,19.90
2019-05-20T13:48:26.855Z,21.20
2019-05-20T13:53:29.810Z,20.70
2019-05-20T13:58:32.657Z,19.90
2019-05-20T14:03:35.386Z,19.40
2019-05-20T14:08:38.119Z,19.10
2019-05-20T14:13:40.825Z,19.10
2019-05-20T14:18:43.589Z,21.20
2019-05-20T14:23:46.304Z,23.30
2019-05-20T14:28:49.120Z,25.00
2019-05-20T14:33:51.879Z,25.70
2019-05-20T14:38:54.518Z,26.80
2019-05-20T14:43:58.415Z,26.80
2019-05-20T14:49:02.560Z,26.60
2019-05-20T14:54:05.618Z,23.50
2019-05-20T14:59:08.426Z,22.50
2019-05-20T15:04:11.155Z,22.30
2019-05-20T15:09:13.797Z,22.50
2019-05-20T15:14:16.794Z,22.30
2019-05-20T15:19:19.486Z,21.90
2019-05-20T15:24:22.222Z,22.20
2019-05-20T15:29:28.107Z,22.80
2019-05-20T15:34:29.391Z,22.40
2019-05-20T15:39:32.441Z,22.10
2019-05-20T15:44:35.435Z,21.70
2019-05-20T15:49:38.481Z,22.10
2019-05-20T15:54:41.532Z,22.70
2019-05-20T15:59:46.412Z,23.50
2019-05-20T16:04:49.118Z,23.00
2019-05-20T16:09:52.083Z,21.50
2019-05-20T16:14:54.888Z,21.50
2019-05-20T16:19:57.727Z,22.70
2019-05-20T16:25:00.565Z,24.60
2019-05-20T16:30:06.843Z,25.70
2019-05-20T16:35:12.510Z,26.60
2019-05-20T16:40:19.453Z,26.90
2019-05-20T16:45:22.234Z,26.10
2019-05-20T16:50:25.171Z,26.60
2019-05-20T16:55:27.938Z,27.60
2019-05-20T17:00:32.384Z,27.70
2019-05-20T17:05:35.428Z,27.90
2019-05-20T17:10:38.268Z,27.60
2019-05-20T17:21:11.168Z,27.50
2019-05-20T17:26:13.872Z,25.80
2019-05-20T17:31:17.655Z,25.00
2019-05-20T17:36:20.517Z,25.00
2019-05-20T17:41:23.647Z,25.60
2019-05-20T17:46:26.490Z,25.30
2019-05-20T17:51:29.365Z,25.10
2019-05-20T17:56:32.216Z,25.10
2019-05-20T18:01:35.411Z,24.40
2019-05-20T18:06:38.082Z,25.20
2019-05-20T18:11:41.181Z,25.10
2019-05-20T18:16:44.043Z,24.60
2019-05-20T18:21:46.978Z,24.20
2019-05-20T18:26:49.860Z,24.20
2019-05-20T18:32:00.825Z,23.50
2019-05-20T18:37:04.852Z,23.10
2019-05-20T18:42:08.807Z,22.30
2019-05-20T18:47:12.497Z,21.30
2019-05-20T18:52:15.275Z,20.20
2019-05-20T18:57:18.227Z,19.60
2019-05-20T19:02:21.019Z,19.20
2019-05-20T19:07:23.781Z,18.90
2019-05-20T19:12:26.574Z,18.60
2019-05-20T19:17:29.507Z,18.40
2019-05-20T19:22:32.510Z,18.20
2019-05-20T19:27:35.436Z,18.00
2019-05-20T19:32:38.350Z,17.80
2019-05-20T19:37:41.194Z,17.60
2019-05-20T19:42:43.982Z,17.50
2019-05-20T19:47:46.997Z,17.40
2019-05-20T19:52:49.856Z,17.30
2019-05-20T19:57:52.587Z,17.20
2019-05-20T20:02:55.349Z,17.10
2019-05-20T20:07:58.278Z,17.10
2019-05-20T20:18:47.952Z,17.00
2019-05-20T20:23:50.807Z,16.90
2019-05-20T20:28:53.666Z,16.80
2019-05-20T20:33:56.307Z,16.70
2019-05-20T20:38:59.145Z,16.70
2019-05-20T20:44:02.067Z,16.70
2019-05-20T20:49:04.863Z,16.70
2019-05-20T20:54:07.800Z,16.70
2019-05-20T20:59:12.911Z,16.60
2019-05-20T21:04:15.656Z,16.60
2019-05-20T21:09:18.590Z,16.50
2019-05-20T21:14:21.282Z,16.40
2019-05-20T21:19:23.883Z,16.40
2019-05-20T21:24:26.737Z,16.30
2019-05-20T21:29:32.452Z,16.30
2019-05-20T21:34:34.112Z,16.20
2019-05-20T21:39:36.763Z,16.20
2019-05-20T21:44:39.481Z,16.10
2019-05-20T21:49:42.068Z,16.10
2019-05-20T21:54:45.038Z,16.00
2019-05-20T21:59:47.876Z,16.00
2019-05-20T22:04:50.649Z,15.90
2019-05-20T22:09:54.662Z,15.80
2019-05-20T22:14:57.583Z,15.80
2019-05-20T22:20:00.329Z,15.70
2019-05-20T22:25:04.448Z,15.70
2019-05-20T22:30:08.701Z,15.60
2019-05-20T22:35:13.012Z,15.60
2019-05-20T22:40:15.939Z,15.50
2019-05-20T22:45:19.106Z,15.50
2019-05-20T22:50:21.986Z,15.40
2019-05-20T22:55:24.894Z,15.40
2019-05-20T23:00:27.627Z,15.30
2019-05-20T23:05:30.621Z,15.20
2019-05-20T23:10:36.533Z,15.20
2019-05-20T23:15:39.475Z,15.10
2019-05-20T23:20:42.229Z,15.10
2019-05-20T23:25:45.350Z,15.00
2019-05-20T23:30:48.214Z,15.10
2019-05-20T23:35:51.015Z,15.10
2019-05-20T23:40:54.210Z,15.00
2019-05-20T23:45:56.781Z,15.00
2019-05-20T23:50:59.472Z,15.00
2019-05-20T23:56:02.992Z,15.00
